Time;durP1;ratioP1;P1;durP2;ratioP2;P2;SDS_P1;SDS_P2;PMS_P1;PMS_P2;Temp;Humidity;BMP_temperature;BMP_pressure;BME280_temperature;BME280_humidity;BME280_pressure;Samples;Min_cycle;Max_cycle;Signal;HPM_P1;HPM_P2
2021/07/14 00:02:25;;;;;;;6.63;4.87;;;17.60;99.90;;;;;;4991130;28;20958;-74
2021/07/14 00:04:56;;;;;;;6.20;4.00;;;17.40;99.90;;;;;;4992938;28;20225;-74
2021/07/14 00:07:21;;;;;;;4.00;3.60;;;17.30;99.90;;;;;;4992342;28;20194;-76
2021/07/14 00:09:47;;;;;;;4.30;3.80;;;17.50;99.90;;;;;;4995863;28;20471;-73
2021/07/14 00:12:14;;;;;;;6.57;4.40;;;17.60;99.90;;;;;;4995431;28;20193;-75
2021/07/14 00:22:24;;;;;;;4.63;3.80;;;17.70;99.90;;;;;;4992020;28;20502;-74
2021/07/14 00:24:49;;;;;;;4.93;4.00;;;17.30;99.90;;;;;;4993141;28;20445;-75
2021/07/14 00:27:15;;;;;;;6.50;4.77;;;17.50;99.90;;;;;;4999221;28;20236;-74
2021/07/14 00:29:58;;;;;;;4.93;3.80;;;17.50;99.90;;;;;;4995867;28;20425;-74
2021/07/14 00:32:25;;;;;;;3.40;3.10;;;17.60;99.90;;;;;;4992545;28;20193;-75
2021/07/14 00:34:52;;;;;;;7.53;3.83;;;17.70;99.90;;;;;;4995278;28;20454;-75
2021/07/14 00:37:21;;;;;;;4.00;3.60;;;17.70;99.90;;;;;;4992401;28;20468;-72
2021/07/14 00:39:55;;;;;;;3.50;3.13;;;17.70;99.90;;;;;;4993158;28;20428;-75
2021/07/14 00:42:20;;;;;;;4.20;3.80;;;17.50;99.90;;;;;;4995270;28;20891;-74
2021/07/14 00:44:46;;;;;;;4.00;3.60;;;17.30;99.90;;;;;;4992481;28;20552;-73
2021/07/14 00:47:12;;;;;;;4.90;4.43;;;17.30;99.90;;;;;;4994431;28;20197;-74
2021/07/14 00:49:38;;;;;;;5.03;3.80;;;17.10;99.90;;;;;;4993817;28;20177;-73
2021/07/14 00:52:04;;;;;;;5.97;4.20;;;17.20;99.90;;;;;;4995239;28;20173;-73
2021/07/14 00:54:30;;;;;;;4.30;3.90;;;17.30;99.90;;;;;;4992039;28;20272;-73
2021/07/14 00:56:56;;;;;;;3.80;3.40;;;17.30;99.90;;;;;;4993736;28;20442;-75
2021/07/14 00:59:22;;;;;;;4.70;4.30;;;17.10;99.90;;;;;;4993453;28;20194;-76
2021/07/14 01:01:48;;;;;;;8.50;3.73;;;17.10;99.90;;;;;;4992537;28;20197;-76
2021/07/14 01:04:22;;;;;;;6.13;4.13;;;17.00;99.90;;;;;;4993210;28;20468;-76
2021/07/14 01:07:22;;;;;;;5.33;3.50;;;17.20;99.90;;;;;;4990284;28;20526;-74
2021/07/14 01:10:00;;;;;;;4.00;3.70;;;17.30;99.90;;;;;;4991985;28;20946;-75
2021/07/14 01:12:28;;;;;;;4.93;3.90;;;17.10;99.90;;;;;;4993142;28;20439;-73
2021/07/14 01:15:21;;;;;;;6.80;4.63;;;17.00;99.90;;;;;;4992731;28;20854;-75
2021/07/14 01:18:22;;;;;;;6.13;4.30;;;16.90;99.90;;;;;;4993563;28;20431;-75
2021/07/14 01:20:54;;;;;;;4.40;3.80;;;16.80;99.90;;;;;;4970447;28;20428;-74
2021/07/14 01:23:38;;;;;;;4.33;3.93;;;16.90;99.90;;;;;;4992860;28;21050;-75
2021/07/14 01:26:12;;;;;;;7.63;4.23;;;16.90;99.90;;;;;;4995528;28;20432;-73
2021/07/14 01:28:42;;;;;;;4.90;4.40;;;16.70;99.90;;;;;;4992462;28;20523;-74
2021/07/14 01:31:12;;;;;;;7.00;4.80;;;16.70;99.90;;;;;;4994041;28;20478;-74
2021/07/14 01:33:41;;;;;;;6.17;3.90;;;16.70;99.90;;;;;;4995050;28;20527;-74
2021/07/14 01:36:15;;;;;;;5.93;4.60;;;16.70;99.90;;;;;;4991015;28;21222;-75
2021/07/14 01:38:44;;;;;;;4.60;4.20;;;16.70;99.90;;;;;;4999000;28;20953;-74
2021/07/14 01:41:13;;;;;;;6.37;3.93;;;16.60;99.90;;;;;;4993129;28;20444;-75
2021/07/14 01:43:44;;;;;;;4.20;3.90;;;16.60;99.90;;;;;;4989718;28;20476;-75
2021/07/14 01:46:12;;;;;;;4.50;4.10;;;16.70;99.90;;;;;;4989908;28;21060;-73
2021/07/14 01:48:41;;;;;;;5.00;4.50;;;16.60;99.90;;;;;;4979701;28;20425;-74
2021/07/14 01:51:08;;;;;;;7.93;4.70;;;16.60;99.90;;;;;;4990227;28;20437;-74
2021/07/14 01:53:37;;;;;;;4.40;4.00;;;16.60;99.90;;;;;;4992981;28;20456;-75
2021/07/14 01:56:08;;;;;;;5.00;4.50;;;16.60;99.90;;;;;;4994561;28;20449;-74
2021/07/14 01:58:36;;;;;;;6.00;4.67;;;16.60;99.90;;;;;;4991458;28;21267;-73
2021/07/14 02:01:07;;;;;;;6.07;5.03;;;16.60;99.90;;;;;;4990914;28;20532;-75
2021/07/14 02:06:03;;;;;;;7.23;5.10;;;16.40;99.90;;;;;;4991644;28;20428;-75
2021/07/14 02:08:30;;;;;;;5.60;4.60;;;16.30;99.90;;;;;;4991319;28;20436;-74
2021/07/14 02:10:58;;;;;;;4.70;4.30;;;16.30;99.90;;;;;;4992592;28;20526;-76
2021/07/14 02:13:26;;;;;;;7.97;4.50;;;16.20;99.90;;;;;;4990143;28;20946;-74
2021/07/14 02:15:55;;;;;;;5.47;4.43;;;16.20;99.90;;;;;;4995554;28;20432;-76
2021/07/14 02:18:24;;;;;;;5.40;4.90;;;16.40;99.90;;;;;;4991767;28;20432;-75
2021/07/14 02:20:51;;;;;;;4.73;4.33;;;16.20;99.90;;;;;;4976974;28;20865;-76
2021/07/14 02:23:17;;;;;;;4.77;4.20;;;16.30;99.90;;;;;;4992746;28;20476;-75
2021/07/14 02:25:43;;;;;;;6.90;5.07;;;16.20;99.90;;;;;;4992279;28;20493;-75
2021/07/14 02:28:08;;;;;;;6.63;5.27;;;16.10;99.90;;;;;;4976640;28;20215;-75
2021/07/14 02:30:34;;;;;;;7.10;4.13;;;16.10;99.90;;;;;;4994019;28;20190;-72
2021/07/14 02:33:09;;;;;;;7.47;4.67;;;16.30;99.90;;;;;;4995582;28;20875;-73
2021/07/14 02:35:39;;;;;;;6.63;4.50;;;16.20;99.90;;;;;;5000978;28;20184;-75
2021/07/14 02:38:09;;;;;;;5.20;4.80;;;16.40;99.90;;;;;;4996888;28;20977;-73
2021/07/14 02:40:46;;;;;;;5.17;4.67;;;16.40;99.90;;;;;;5001008;28;20421;-73
2021/07/14 02:43:14;;;;;;;4.40;4.00;;;16.30;99.90;;;;;;4982413;28;20567;-74
2021/07/14 02:45:46;;;;;;;8.00;4.30;;;16.40;99.90;;;;;;4997845;28;20440;-74
2021/07/14 02:48:12;;;;;;;7.00;5.53;;;16.40;99.90;;;;;;4998689;28;20445;-75
2021/07/14 02:50:39;;;;;;;8.43;5.00;;;16.40;99.90;;;;;;4997623;28;20531;-75
2021/07/14 02:53:10;;;;;;;6.73;4.37;;;16.40;99.90;;;;;;5001823;28;20460;-76
2021/07/14 02:55:37;;;;;;;4.80;4.40;;;16.40;99.90;;;;;;5001104;28;21201;-76
2021/07/14 02:58:05;;;;;;;6.23;4.07;;;16.40;99.90;;;;;;4998854;28;20439;-76
2021/07/14 03:00:31;;;;;;;4.40;4.00;;;16.40;99.90;;;;;;5002846;28;20432;-75
2021/07/14 03:02:59;;;;;;;5.83;5.23;;;16.30;99.90;;;;;;4998046;28;20470;-75
2021/07/14 03:05:27;;;;;;;5.10;4.30;;;16.30;99.90;;;;;;5001342;28;20476;-75
2021/07/14 03:07:53;;;;;;;8.37;5.70;;;16.20;99.90;;;;;;4998096;28;20522;-72
2021/07/14 03:10:21;;;;;;;6.20;4.20;;;16.20;99.90;;;;;;4998255;28;20978;-74
2021/07/14 03:12:54;;;;;;;8.13;4.60;;;16.20;99.90;;;;;;4988062;28;20445;-74
2021/07/14 03:15:21;;;;;;;4.40;4.00;;;16.10;99.90;;;;;;4996784;28;20535;-75
2021/07/14 03:17:49;;;;;;;5.80;3.90;;;16.00;99.90;;;;;;4999823;28;20475;-76
2021/07/14 03:20:16;;;;;;;5.43;4.93;;;16.00;99.90;;;;;;4987711;28;20470;-75
2021/07/14 03:22:44;;;;;;;5.90;5.00;;;16.00;99.90;;;;;;4997348;28;20444;-76
2021/07/14 03:25:12;;;;;;;8.10;3.90;;;16.00;99.90;;;;;;4998745;28;20488;-74
2021/07/14 03:27:40;;;;;;;5.80;4.63;;;15.90;99.90;;;;;;4997354;28;20442;-75
2021/07/14 03:30:06;;;;;;;7.87;4.70;;;15.90;99.90;;;;;;5000994;28;20432;-76
2021/07/14 03:32:32;;;;;;;5.87;5.00;;;16.00;99.90;;;;;;4998087;28;20452;-72
2021/07/14 03:34:58;;;;;;;10.67;4.63;;;16.00;99.90;;;;;;5002320;28;20456;-75
2021/07/14 03:37:24;;;;;;;6.10;5.43;;;16.00;99.90;;;;;;5000339;28;20207;-75
2021/07/14 03:39:50;;;;;;;7.63;5.37;;;16.00;99.90;;;;;;4996903;28;20268;-73
2021/07/14 03:42:17;;;;;;;6.03;5.50;;;16.10;99.90;;;;;;4985884;28;20528;-76
2021/07/14 03:44:47;;;;;;;9.90;4.93;;;16.20;99.90;;;;;;5000571;28;20483;-74
2021/07/14 03:47:18;;;;;;;5.30;4.80;;;16.10;99.90;;;;;;5001369;28;20432;-75
2021/07/14 03:49:45;;;;;;;9.20;5.40;;;16.20;99.90;;;;;;4999146;28;20448;-75
2021/07/14 03:52:12;;;;;;;5.70;4.80;;;16.10;99.90;;;;;;5004302;28;20866;-73
2021/07/14 03:54:38;;;;;;;8.43;4.20;;;16.10;99.90;;;;;;5007688;28;20467;-74
2021/07/14 03:57:04;;;;;;;5.70;4.77;;;16.10;99.90;;;;;;5017987;28;20724;-72
2021/07/14 03:59:31;;;;;;;5.33;4.83;;;16.10;99.90;;;;;;5027068;28;20504;-71
2021/07/14 04:01:57;;;;;;;7.20;5.53;;;16.10;99.90;;;;;;5030564;28;20416;-72
2021/07/14 04:04:23;;;;;;;5.40;4.90;;;16.20;99.90;;;;;;4998447;28;20498;-72
2021/07/14 04:06:56;;;;;;;5.63;5.03;;;16.30;99.90;;;;;;5019052;28;20823;-73
2021/07/14 04:09:24;;;;;;;4.27;3.73;;;16.30;99.90;;;;;;5004066;28;20252;-75
2021/07/14 04:11:59;;;;;;;6.17;4.57;;;16.40;99.90;;;;;;5001964;28;20443;-75
2021/07/14 04:14:26;;;;;;;4.77;4.37;;;16.40;99.90;;;;;;4995500;28;20463;-76
2021/07/14 04:16:53;;;;;;;6.27;4.87;;;16.30;99.90;;;;;;4999812;28;21097;-75
2021/07/14 04:19:18;;;;;;;4.70;4.30;;;16.20;99.90;;;;;;4997815;28;20432;-75
2021/07/14 04:21:44;;;;;;;7.33;4.43;;;16.20;99.90;;;;;;4995727;28;20432;-73
2021/07/14 04:24:10;;;;;;;6.60;4.80;;;16.10;99.90;;;;;;4997876;28;20213;-75
2021/07/14 04:26:36;;;;;;;5.50;5.00;;;16.00;99.90;;;;;;4999780;28;20530;-74
2021/07/14 04:29:04;;;;;;;4.53;4.13;;;16.00;99.90;;;;;;4996603;28;20190;-73
2021/07/14 04:31:33;;;;;;;5.67;5.10;;;16.00;99.90;;;;;;4999661;28;20586;-75
2021/07/14 04:34:00;;;;;;;5.73;4.70;;;15.90;99.90;;;;;;4995079;28;20460;-75
2021/07/14 04:36:25;;;;;;;6.53;5.23;;;16.00;99.90;;;;;;4998172;28;20517;-74
2021/07/14 04:38:51;;;;;;;5.90;4.77;;;16.00;99.90;;;;;;4999236;28;20963;-75
2021/07/14 04:41:17;;;;;;;5.77;5.17;;;16.20;99.90;;;;;;4979990;28;20200;-74
2021/07/14 04:43:42;;;;;;;7.90;4.80;;;16.30;99.90;;;;;;4995859;28;20617;-73
2021/07/14 04:46:08;;;;;;;12.93;5.23;;;16.40;99.90;;;;;;5002303;28;20197;-75
2021/07/14 04:48:34;;;;;;;7.23;4.57;;;16.30;99.90;;;;;;4996068;28;20280;-72
2021/07/14 04:51:00;;;;;;;6.10;5.17;;;16.20;99.90;;;;;;4997765;28;20224;-74
2021/07/14 04:53:25;;;;;;;10.70;5.27;;;16.30;99.90;;;;;;4999632;28;20227;-74
2021/07/14 04:55:51;;;;;;;6.63;5.13;;;16.20;99.90;;;;;;4998155;28;20308;-73
2021/07/14 04:58:17;;;;;;;10.80;5.20;;;16.30;99.90;;;;;;4985671;28;20252;-75
2021/07/14 05:00:42;;;;;;;6.73;5.53;;;16.40;99.90;;;;;;4997305;28;20606;-75
2021/07/14 05:03:08;;;;;;;6.73;6.13;;;16.40;99.90;;;;;;4993184;28;20317;-72
2021/07/14 05:05:33;;;;;;;5.83;5.20;;;16.50;99.90;;;;;;4996198;28;20499;-75
2021/07/14 05:07:59;;;;;;;9.37;5.30;;;16.40;99.90;;;;;;4994310;28;20216;-76
2021/07/14 05:10:29;;;;;;;7.07;4.93;;;16.40;99.90;;;;;;4993829;28;20189;-75
2021/07/14 05:12:55;;;;;;;7.67;5.40;;;16.50;99.90;;;;;;4994810;28;20190;-75
2021/07/14 05:15:21;;;;;;;8.63;4.80;;;16.50;99.90;;;;;;4991856;28;20506;-73
2021/07/14 05:17:47;;;;;;;5.17;4.17;;;16.40;99.90;;;;;;4993194;28;20526;-75
2021/07/14 05:20:12;;;;;;;6.70;5.40;;;16.40;99.90;;;;;;4992713;28;20985;-73
2021/07/14 05:22:38;;;;;;;7.30;4.47;;;16.40;99.90;;;;;;4995460;28;20721;-72
2021/07/14 05:25:07;;;;;;;7.57;4.70;;;16.40;99.90;;;;;;4994545;28;20276;-73
2021/07/14 05:27:33;;;;;;;5.00;4.50;;;16.50;99.90;;;;;;4994525;28;20186;-74
2021/07/14 05:29:59;;;;;;;7.13;4.57;;;16.50;99.90;;;;;;4993927;28;20528;-74
2021/07/14 05:32:25;;;;;;;6.63;4.20;;;16.50;99.90;;;;;;4991924;28;21009;-73
2021/07/14 05:34:50;;;;;;;4.40;4.00;;;16.50;99.90;;;;;;4996542;28;20476;-74
2021/07/14 05:37:16;;;;;;;4.80;4.10;;;16.50;99.90;;;;;;4995185;28;20725;-74
2021/07/14 05:39:42;;;;;;;5.80;4.70;;;16.50;99.90;;;;;;4990585;28;20820;-73
2021/07/14 05:42:08;;;;;;;7.17;4.40;;;16.60;99.90;;;;;;4977146;28;20452;-74
2021/07/14 05:44:34;;;;;;;5.93;4.47;;;16.60;99.90;;;;;;4995641;28;20483;-77
2021/07/14 05:47:00;;;;;;;6.27;5.40;;;16.60;99.90;;;;;;4992189;28;20228;-77
2021/07/14 05:49:26;;;;;;;6.07;4.60;;;16.70;99.90;;;;;;4992819;28;20216;-75
2021/07/14 05:51:51;;;;;;;10.43;5.07;;;16.70;99.90;;;;;;4994909;28;20444;-73
2021/07/14 05:54:17;;;;;;;7.60;4.60;;;16.70;99.90;;;;;;4977553;28;20220;-74
2021/07/14 05:56:43;;;;;;;8.10;4.73;;;16.80;99.90;;;;;;4990844;28;20230;-75
2021/07/14 05:59:08;;;;;;;10.90;5.03;;;16.70;99.90;;;;;;4990434;28;20209;-74
2021/07/14 06:01:34;;;;;;;6.40;4.83;;;16.70;99.90;;;;;;4977664;28;20227;-75
2021/07/14 06:04:00;;;;;;;8.23;5.47;;;16.70;99.90;;;;;;4996968;28;20224;-74
2021/07/14 06:06:29;;;;;;;10.10;5.10;;;16.70;99.90;;;;;;4995471;28;20223;-74
2021/07/14 06:08:55;;;;;;;6.30;5.07;;;16.80;99.90;;;;;;4976745;28;20182;-76
2021/07/14 06:11:22;;;;;;;5.30;4.70;;;16.90;99.90;;;;;;4993443;28;20496;-76
2021/07/14 06:13:48;;;;;;;8.63;4.93;;;16.90;99.90;;;;;;4994400;28;20287;-75
2021/07/14 06:16:13;;;;;;;8.93;4.70;;;17.10;99.90;;;;;;4994964;28;20550;-76
2021/07/14 06:18:39;;;;;;;10.30;4.97;;;17.10;99.90;;;;;;4991614;28;20193;-76
2021/07/14 06:21:05;;;;;;;4.63;4.23;;;16.90;99.90;;;;;;4998411;28;20192;-74
2021/07/14 06:23:32;;;;;;;5.13;4.57;;;17.00;99.90;;;;;;4991834;28;20241;-72
2021/07/14 06:25:58;;;;;;;8.43;5.50;;;16.90;99.90;;;;;;4992015;28;20193;-73
2021/07/14 06:28:24;;;;;;;4.80;4.40;;;16.90;99.90;;;;;;4993240;28;20520;-75
2021/07/14 06:30:50;;;;;;;5.97;4.30;;;17.00;99.90;;;;;;4995291;28;20616;-74
2021/07/14 06:33:15;;;;;;;18.87;5.97;;;17.00;99.90;;;;;;4998773;28;20247;-75
2021/07/14 06:35:42;;;;;;;4.80;4.30;;;17.10;99.90;;;;;;4993292;28;20456;-73
2021/07/14 06:38:08;;;;;;;4.43;4.03;;;17.10;99.90;;;;;;4992581;28;20201;-74
2021/07/14 06:40:37;;;;;;;10.20;4.90;;;17.20;99.90;;;;;;4996367;28;20527;-74
2021/07/14 06:43:05;;;;;;;7.50;5.37;;;17.30;99.90;;;;;;4991839;28;20554;-75
2021/07/14 06:45:31;;;;;;;4.60;4.10;;;17.50;99.90;;;;;;4994554;28;20437;-72
2021/07/14 06:47:57;;;;;;;4.73;4.30;;;17.50;99.90;;;;;;4990886;28;20525;-73
2021/07/14 06:50:23;;;;;;;4.97;4.30;;;17.60;99.90;;;;;;4996080;28;20428;-75
2021/07/14 06:52:49;;;;;;;6.70;4.63;;;17.50;99.90;;;;;;4993437;28;20463;-75
2021/07/14 06:55:14;;;;;;;6.23;4.37;;;17.50;99.90;;;;;;4979847;28;20224;-73
2021/07/14 06:57:41;;;;;;;6.20;4.27;;;17.40;99.90;;;;;;4995846;28;20200;-75
2021/07/14 07:00:09;;;;;;;5.70;4.63;;;17.40;99.90;;;;;;4994890;28;20648;-73
2021/07/14 07:02:35;;;;;;;6.27;4.37;;;17.60;99.90;;;;;;4997591;28;20435;-74
2021/07/14 07:05:02;;;;;;;6.07;4.80;;;17.40;99.90;;;;;;4990963;28;20456;-73
2021/07/14 07:07:28;;;;;;;5.20;4.33;;;17.40;99.90;;;;;;4994772;28;20190;-74
2021/07/14 07:09:53;;;;;;;4.87;4.47;;;17.50;99.90;;;;;;4991715;28;20726;-73
2021/07/14 07:12:20;;;;;;;5.13;4.43;;;17.60;99.90;;;;;;4981587;28;20186;-75
2021/07/14 07:14:46;;;;;;;4.67;3.70;;;17.60;99.90;;;;;;4993687;28;20892;-74
2021/07/14 07:17:11;;;;;;;6.87;4.33;;;17.50;99.90;;;;;;4994885;28;20471;-75
2021/07/14 07:19:37;;;;;;;5.30;4.10;;;17.60;99.90;;;;;;4994491;28;20513;-74
2021/07/14 07:22:04;;;;;;;4.10;3.80;;;17.50;99.90;;;;;;4997564;28;20573;-75
2021/07/14 07:24:31;;;;;;;6.53;4.13;;;17.40;99.90;;;;;;4995458;28;20499;-73
2021/07/14 07:26:56;;;;;;;6.00;4.50;;;17.40;99.90;;;;;;4993255;28;20439;-75
2021/07/14 07:29:22;;;;;;;5.63;4.40;;;17.30;99.90;;;;;;4997816;28;20441;-75
2021/07/14 07:31:48;;;;;;;5.87;4.20;;;17.20;99.90;;;;;;5001399;28;20189;-75
2021/07/14 07:34:15;;;;;;;5.37;3.90;;;17.30;99.90;;;;;;4983407;28;20314;-75
2021/07/14 07:36:41;;;;;;;4.50;4.10;;;17.40;99.90;;;;;;4996439;28;20543;-72
2021/07/14 07:39:07;;;;;;;5.13;4.17;;;17.50;99.90;;;;;;4993826;28;20442;-74
2021/07/14 07:41:33;;;;;;;4.93;3.70;;;17.50;99.90;;;;;;4995688;28;20443;-74
2021/07/14 07:43:59;;;;;;;4.43;3.63;;;17.50;99.90;;;;;;4998247;28;20480;-74
2021/07/14 07:46:25;;;;;;;5.50;4.33;;;17.50;99.90;;;;;;4995003;28;20455;-75
2021/07/14 07:48:51;;;;;;;4.37;3.97;;;17.60;99.90;;;;;;4996613;28;20659;-75
2021/07/14 07:51:17;;;;;;;3.80;3.50;;;17.40;99.90;;;;;;4994666;28;20655;-74
2021/07/14 07:53:43;;;;;;;4.23;3.83;;;17.60;99.90;;;;;;4993682;28;20220;-72
2021/07/14 07:56:09;;;;;;;4.50;4.10;;;17.60;99.90;;;;;;4998344;28;20541;-75
2021/07/14 07:58:36;;;;;;;4.90;4.13;;;17.60;99.90;;;;;;4996087;28;20476;-73
2021/07/14 08:01:02;;;;;;;4.67;4.20;;;17.60;99.90;;;;;;4997746;28;20453;-74
2021/07/14 08:03:28;;;;;;;4.80;4.23;;;17.60;99.90;;;;;;4992720;28;20563;-74
2021/07/14 08:05:54;;;;;;;4.90;4.37;;;17.70;99.90;;;;;;4991948;28;20523;-73
2021/07/14 08:08:20;;;;;;;6.70;4.70;;;17.70;99.90;;;;;;4995527;28;20351;-75
2021/07/14 08:10:46;;;;;;;6.40;4.40;;;17.70;99.90;;;;;;4992454;28;21270;-74
2021/07/14 08:13:12;;;;;;;6.90;4.77;;;17.70;99.90;;;;;;4999814;28;20209;-75
2021/07/14 08:15:38;;;;;;;5.10;4.60;;;17.70;99.90;;;;;;4994583;28;20478;-71
2021/07/14 08:18:04;;;;;;;5.20;4.70;;;17.70;99.90;;;;;;4993573;28;20476;-76
2021/07/14 08:20:30;;;;;;;5.00;4.50;;;17.60;99.90;;;;;;4996905;28;20365;-74
2021/07/14 08:22:56;;;;;;;9.77;4.97;;;17.70;99.90;;;;;;4996229;28;20527;-73
2021/07/14 08:25:23;;;;;;;4.80;4.40;;;17.70;99.90;;;;;;4998027;28;20190;-72
2021/07/14 08:27:48;;;;;;;4.50;3.93;;;17.70;99.90;;;;;;4993394;28;20895;-72
2021/07/14 08:30:15;;;;;;;9.20;4.67;;;17.60;99.90;;;;;;4980358;28;20409;-73
2021/07/14 08:32:41;;;;;;;5.30;4.60;;;17.70;99.90;;;;;;4995300;28;20209;-74
2021/07/14 08:35:08;;;;;;;6.17;5.57;;;17.70;99.90;;;;;;4996340;28;20440;-75
2021/07/14 08:37:34;;;;;;;5.80;4.90;;;17.70;99.90;;;;;;4994284;28;20198;-74
2021/07/14 08:40:00;;;;;;;5.40;4.90;;;17.70;99.90;;;;;;4997575;28;20916;-74
2021/07/14 08:42:27;;;;;;;7.00;4.57;;;17.70;99.90;;;;;;4999340;28;20789;-74
2021/07/14 08:44:53;;;;;;;6.47;5.40;;;17.80;99.90;;;;;;4991052;28;20476;-73
2021/07/14 08:47:21;;;;;;;9.80;6.07;;;17.80;99.90;;;;;;4997646;28;20785;-75
2021/07/14 08:49:49;;;;;;;5.37;4.87;;;17.80;99.90;;;;;;4997538;28;20550;-73
2021/07/14 08:52:17;;;;;;;5.40;4.70;;;17.80;99.90;;;;;;4995449;28;20424;-75
2021/07/14 08:54:43;;;;;;;7.47;5.57;;;17.80;99.90;;;;;;4993928;28;20993;-75
2021/07/14 08:57:11;;;;;;;6.20;5.00;;;17.80;99.90;;;;;;4996112;28;20444;-74
2021/07/14 08:59:37;;;;;;;6.03;5.43;;;17.70;99.90;;;;;;4994376;28;20817;-73
2021/07/14 09:02:04;;;;;;;7.20;5.80;;;17.60;99.90;;;;;;4996797;28;20440;-74
2021/07/14 09:04:29;;;;;;;10.77;5.30;;;17.60;99.90;;;;;;4996251;28;20476;-75
2021/07/14 09:06:55;;;;;;;6.60;5.70;;;17.60;99.90;;;;;;5007812;28;20448;-72
2021/07/14 09:09:22;;;;;;;6.93;5.70;;;17.60;99.90;;;;;;5022735;28;20224;-73
2021/07/14 09:11:52;;;;;;;6.93;5.80;;;17.60;99.90;;;;;;5021065;28;20424;-72
2021/07/14 09:14:44;;;;;;;6.87;6.17;;;17.70;99.90;;;;;;5018784;28;20455;-72
2021/07/14 09:17:25;;;;;;;6.57;5.97;;;17.70;99.90;;;;;;5009726;28;20448;-72
2021/07/14 09:19:52;;;;;;;11.17;6.13;;;17.80;99.90;;;;;;5004459;28;20499;-74
2021/07/14 09:22:27;;;;;;;6.60;5.90;;;17.90;99.90;;;;;;4983127;28;20477;-73
2021/07/14 09:24:57;;;;;;;6.67;6.07;;;17.90;99.90;;;;;;4994508;28;20480;-71
2021/07/14 09:27:36;;;;;;;7.90;5.47;;;17.90;99.90;;;;;;4998875;28;20433;-75
2021/07/14 09:30:08;;;;;;;8.67;6.20;;;18.00;99.90;;;;;;4989546;28;20460;-73
2021/07/14 09:32:58;;;;;;;6.00;5.40;;;18.00;99.90;;;;;;4999629;28;20515;-75
2021/07/14 09:35:42;;;;;;;6.70;5.73;;;18.00;99.90;;;;;;5004306;28;20705;-72
2021/07/14 09:38:11;;;;;;;9.47;5.70;;;17.90;99.90;;;;;;4995791;28;20947;-74
2021/07/14 09:40:39;;;;;;;14.20;7.33;;;17.90;99.90;;;;;;5002539;28;20950;-75
2021/07/14 09:43:13;;;;;;;6.90;6.17;;;18.00;99.90;;;;;;4993780;28;21413;-74
2021/07/14 09:45:46;;;;;;;7.33;5.50;;;18.10;99.90;;;;;;4987453;28;20520;-75
2021/07/14 09:48:15;;;;;;;8.13;5.53;;;18.30;99.90;;;;;;4996931;28;20412;-72
2021/07/14 09:50:48;;;;;;;7.63;5.97;;;18.20;99.90;;;;;;4993732;28;20463;-74
2021/07/14 09:53:19;;;;;;;6.87;5.27;;;18.20;99.90;;;;;;4988875;28;20467;-74
2021/07/14 09:55:46;;;;;;;6.53;5.70;;;18.10;99.90;;;;;;4993231;28;20439;-75
2021/07/14 09:58:20;;;;;;;8.43;5.50;;;18.10;99.90;;;;;;4975119;28;20941;-74
2021/07/14 10:00:55;;;;;;;6.67;6.03;;;18.20;99.90;;;;;;4981976;28;21139;-74
2021/07/14 10:03:26;;;;;;;6.23;5.60;;;18.20;99.90;;;;;;4995327;28;21035;-72
2021/07/14 10:06:05;;;;;;;11.90;4.73;;;18.10;99.90;;;;;;4995597;28;20431;-72
2021/07/14 10:08:33;;;;;;;7.63;5.90;;;18.20;99.90;;;;;;4985362;28;20452;-72
2021/07/14 10:11:21;;;;;;;6.77;6.17;;;18.20;99.90;;;;;;4992382;28;20445;-75
2021/07/14 10:14:07;;;;;;;6.87;5.30;;;18.20;99.90;;;;;;4989577;28;20459;-72
2021/07/14 10:16:42;;;;;;;5.87;5.07;;;18.30;99.90;;;;;;4990762;28;20572;-71
2021/07/14 10:19:10;;;;;;;8.00;5.83;;;18.40;99.90;;;;;;4991686;28;20943;-74
2021/07/14 10:21:44;;;;;;;6.40;5.80;;;18.40;99.90;;;;;;4979340;28;20514;-76
2021/07/14 10:24:12;;;;;;;5.60;5.10;;;18.30;99.90;;;;;;4997897;28;20924;-72
2021/07/14 10:26:41;;;;;;;6.20;5.27;;;18.30;99.90;;;;;;4994782;28;20454;-72
2021/07/14 10:29:07;;;;;;;7.47;5.33;;;18.20;99.90;;;;;;4992590;28;20429;-74
2021/07/14 10:31:35;;;;;;;6.10;5.50;;;18.30;99.90;;;;;;4998679;28;20980;-74
2021/07/14 10:34:03;;;;;;;7.13;6.43;;;18.40;99.90;;;;;;4992224;28;20470;-73
2021/07/14 10:36:31;;;;;;;6.53;5.83;;;18.40;99.90;;;;;;4990145;28;20460;-74
2021/07/14 10:39:07;;;;;;;6.70;5.30;;;18.40;99.90;;;;;;4996378;28;20444;-73
2021/07/14 10:41:33;;;;;;;6.17;5.57;;;18.50;99.90;;;;;;4992782;28;20509;-73
2021/07/14 10:44:01;;;;;;;9.10;5.37;;;18.40;99.90;;;;;;4993875;28;20895;-73
2021/07/14 10:46:29;;;;;;;6.13;5.40;;;18.40;99.90;;;;;;4992500;28;20490;-73
2021/07/14 10:48:57;;;;;;;5.83;5.33;;;18.40;99.90;;;;;;4989131;28;20440;-73
2021/07/14 10:51:27;;;;;;;5.87;4.87;;;18.40;99.90;;;;;;4992350;28;20444;-73
2021/07/14 10:53:58;;;;;;;6.50;5.87;;;18.40;99.90;;;;;;4993975;28;20463;-74
2021/07/14 10:56:27;;;;;;;11.10;6.53;;;18.50;99.90;;;;;;4994482;28;20455;-73
2021/07/14 10:58:53;;;;;;;5.93;5.43;;;18.50;99.90;;;;;;4993921;28;20470;-73
2021/07/14 11:01:51;;;;;;;6.80;5.60;;;18.60;99.90;;;;;;4989531;28;20455;-73
2021/07/14 11:04:25;;;;;;;12.83;5.43;;;18.60;99.90;;;;;;4995509;28;21409;-71
2021/07/14 11:06:58;;;;;;;5.63;5.10;;;18.40;99.90;;;;;;4995041;28;20789;-73
2021/07/14 11:09:45;;;;;;;7.00;5.70;;;18.50;99.90;;;;;;4992214;28;20447;-74
2021/07/14 11:12:33;;;;;;;6.40;5.80;;;18.60;99.90;;;;;;4999513;28;20427;-73
2021/07/14 11:15:00;;;;;;;5.13;4.47;;;18.80;99.90;;;;;;4995394;28;20458;-74
2021/07/14 11:17:34;;;;;;;5.00;4.50;;;18.70;99.90;;;;;;4971848;28;20808;-74
2021/07/14 11:20:11;;;;;;;5.20;4.70;;;18.70;99.90;;;;;;4988283;28;20448;-73
2021/07/14 11:22:53;;;;;;;6.67;4.30;;;18.90;99.90;;;;;;4985780;28;20482;-74
2021/07/14 11:25:26;;;;;;;6.00;4.70;;;19.10;99.90;;;;;;4990767;28;20527;-74
2021/07/14 11:27:54;;;;;;;5.83;4.23;;;19.10;99.90;;;;;;4992766;28;20429;-72
2021/07/14 11:30:22;;;;;;;5.17;4.63;;;19.20;99.90;;;;;;4992245;28;20444;-72
2021/07/14 11:32:47;;;;;;;6.00;3.97;;;19.40;99.90;;;;;;4992632;28;20424;-75
2021/07/14 11:35:18;;;;;;;5.10;4.17;;;19.50;99.90;;;;;;4988733;28;20474;-74
2021/07/14 11:37:55;;;;;;;7.57;4.50;;;19.60;99.90;;;;;;4988168;28;20193;-74
2021/07/14 11:40:21;;;;;;;5.90;4.40;;;19.50;99.90;;;;;;4992668;28;20428;-74
2021/07/14 11:43:03;;;;;;;5.53;4.57;;;19.70;99.90;;;;;;4995889;28;20425;-75
2021/07/14 11:45:39;;;;;;;4.33;3.93;;;19.80;99.90;;;;;;4987409;28;20548;-72
2021/07/14 11:48:13;;;;;;;4.50;4.07;;;19.70;99.90;;;;;;4987900;28;21101;-73
2021/07/14 11:50:57;;;;;;;4.47;4.07;;;19.60;99.90;;;;;;4985925;28;20443;-73
2021/07/14 11:53:26;;;;;;;4.37;3.97;;;19.60;99.90;;;;;;4992841;28;20475;-74
2021/07/14 11:56:14;;;;;;;4.13;3.57;;;19.70;99.90;;;;;;4978890;28;24626;-72
2021/07/14 11:58:45;;;;;;;5.03;3.83;;;19.80;99.90;;;;;;4989944;28;20475;-74
2021/07/14 12:01:31;;;;;;;4.27;3.87;;;19.80;99.90;;;;;;4987358;28;20448;-73
2021/07/14 12:06:42;;;;;;;4.30;3.90;;;19.80;99.90;;;;;;4989061;28;20817;-74
2021/07/14 12:09:14;;;;;;;3.43;3.10;;;19.90;99.90;;;;;;4974722;28;20504;-75
2021/07/14 12:11:43;;;;;;;6.57;3.87;;;19.80;99.90;;;;;;4992385;28;20447;-76
2021/07/14 12:14:16;;;;;;;3.93;3.63;;;19.80;99.90;;;;;;4989964;28;20566;-76
2021/07/14 12:16:49;;;;;;;4.73;3.50;;;19.80;99.90;;;;;;4993930;28;21963;-76
2021/07/14 12:19:30;;;;;;;5.00;3.70;;;19.80;99.90;;;;;;4989332;28;21089;-76
2021/07/14 12:22:03;;;;;;;4.97;4.03;;;19.90;99.90;;;;;;4986017;28;20479;-75
2021/07/14 12:24:36;;;;;;;9.53;4.20;;;19.90;99.90;;;;;;4975091;28;20934;-74
2021/07/14 12:27:10;;;;;;;6.43;3.60;;;20.00;99.90;;;;;;4992732;28;20522;-75
2021/07/14 12:29:37;;;;;;;5.90;3.27;;;20.00;99.90;;;;;;4992799;28;20425;-73
2021/07/14 12:32:03;;;;;;;3.70;3.40;;;20.20;99.90;;;;;;4987110;28;20444;-74
2021/07/14 12:34:30;;;;;;;4.50;4.07;;;20.20;99.90;;;;;;4988074;28;20840;-75
2021/07/14 12:36:57;;;;;;;4.43;3.57;;;20.10;99.90;;;;;;4994212;28;20460;-76
2021/07/14 12:39:25;;;;;;;5.60;4.23;;;20.20;99.90;;;;;;4992589;28;20448;-75
2021/07/14 12:41:53;;;;;;;9.63;3.80;;;20.10;99.90;;;;;;4991613;28;20471;-75
2021/07/14 12:44:19;;;;;;;6.43;3.50;;;20.20;99.90;;;;;;4991319;28;20475;-74
2021/07/14 12:46:45;;;;;;;3.90;3.40;;;20.10;99.90;;;;;;4974369;28;20488;-78
2021/07/14 12:49:16;;;;;;;4.27;3.70;;;20.00;99.90;;;;;;4991054;28;20432;-74
2021/07/14 12:52:05;;;;;;;3.70;3.40;;;20.00;99.90;;;;;;4989206;28;21277;-74
2021/07/14 12:54:31;;;;;;;3.97;3.63;;;20.10;99.90;;;;;;4994517;28;20852;-74
2021/07/14 12:57:14;;;;;;;6.93;3.20;;;20.10;99.90;;;;;;4989886;28;20436;-75
2021/07/14 12:59:57;;;;;;;4.00;2.87;;;20.20;99.90;;;;;;4989851;28;20448;-76
2021/07/14 13:02:25;;;;;;;3.23;2.93;;;20.30;99.90;;;;;;4987014;28;20514;-75
2021/07/14 13:04:53;;;;;;;3.70;3.37;;;20.30;99.90;;;;;;4989591;28;20481;-75
2021/07/14 13:07:22;;;;;;;4.00;3.70;;;20.50;99.90;;;;;;4987797;28;20436;-75
2021/07/14 13:09:49;;;;;;;3.43;3.13;;;20.20;99.90;;;;;;4987066;28;20741;-75